createdAt,value
2023-04-28T00:00:21.373Z,35.7980
2023-04-28T00:01:23.759Z,35.7400
2023-04-28T00:02:26.005Z,35.7590
2023-04-28T00:03:28.163Z,35.7760
2023-04-28T00:04:30.368Z,35.7590
2023-04-28T00:05:32.462Z,35.7300
2023-04-28T00:06:34.608Z,35.7640
2023-04-28T00:07:36.846Z,35.7810
2023-04-28T00:08:36.938Z,35.7670
2023-04-28T00:09:39.152Z,35.7510
2023-04-28T00:10:41.425Z,35.7550
2023-04-28T00:11:43.701Z,35.7910
2023-04-28T00:12:45.911Z,35.7850
2023-04-28T00:13:48.189Z,35.7610
2023-04-28T00:14:50.450Z,35.7850
2023-04-28T00:15:52.756Z,35.7710
2023-04-28T00:16:55.013Z,35.7540
2023-04-28T00:17:57.169Z,35.7590
2023-04-28T00:18:59.322Z,35.7820
2023-04-28T00:20:01.588Z,35.7940
2023-04-28T00:21:03.846Z,35.7820
2023-04-28T00:22:06.142Z,35.7350
2023-04-28T00:23:08.408Z,35.7120
2023-04-28T00:24:10.667Z,35.7290
2023-04-28T00:25:10.747Z,35.7540
2023-04-28T00:26:13.039Z,35.7760
2023-04-28T00:27:15.283Z,35.7650
2023-04-28T00:28:30.578Z,35.7410
2023-04-28T00:29:19.783Z,35.7820
2023-04-28T00:30:22.034Z,35.7650
2023-04-28T00:31:24.298Z,35.7880
2023-04-28T00:32:26.661Z,35.7990
2023-04-28T00:33:26.624Z,35.8100
2023-04-28T00:34:28.873Z,35.7820
2023-04-28T00:35:31.115Z,35.7580
2023-04-28T00:36:33.339Z,35.7630
2023-04-28T00:37:35.602Z,35.7690
2023-04-28T00:38:37.823Z,35.7580
2023-04-28T00:39:40.037Z,35.7500
2023-04-28T00:40:42.295Z,35.7610
2023-04-28T00:41:44.567Z,35.7900
2023-04-28T00:42:46.791Z,35.7820
2023-04-28T00:43:49.011Z,35.7770
2023-04-28T00:44:51.270Z,35.8040
2023-04-28T00:45:53.619Z,35.7850
2023-04-28T00:46:55.785Z,35.8100
2023-04-28T00:47:58.069Z,35.8150
2023-04-28T00:49:00.343Z,35.7740
2023-04-28T00:50:02.512Z,35.7770
2023-04-28T00:51:04.735Z,35.7800
2023-04-28T00:52:06.995Z,35.8210
2023-04-28T00:53:09.398Z,35.8100
2023-04-28T00:54:09.361Z,35.7980
2023-04-28T00:55:11.630Z,35.8100
2023-04-28T00:56:13.881Z,35.8150
2023-04-28T00:57:16.217Z,35.7740
2023-04-28T00:58:16.304Z,35.7780
2023-04-28T00:59:18.561Z,35.8060
2023-04-28T01:00:20.804Z,35.8060
2023-04-28T01:01:23.153Z,35.7890
2023-04-28T01:02:25.444Z,35.7660
2023-04-28T01:03:27.766Z,35.7780
2023-04-28T01:04:30.031Z,35.8060
2023-04-28T01:05:32.032Z,35.8060
2023-04-28T01:06:34.285Z,35.7780
2023-04-28T01:07:36.549Z,35.8060
2023-04-28T01:08:38.813Z,35.8260
2023-04-28T01:09:41.055Z,35.8200
2023-04-28T01:10:41.156Z,35.8090
2023-04-28T01:11:43.429Z,35.8260
2023-04-28T01:12:45.705Z,35.8090
2023-04-28T01:13:47.957Z,35.7960
2023-04-28T01:14:50.175Z,35.8140
2023-04-28T01:15:52.435Z,35.8200
2023-04-28T01:16:54.818Z,35.8410
2023-04-28T01:17:57.010Z,35.8300
2023-04-28T01:18:59.153Z,35.8580
2023-04-28T01:20:01.412Z,35.8350
2023-04-28T01:21:03.569Z,35.8410
2023-04-28T01:22:05.812Z,35.8470
2023-04-28T01:23:08.049Z,35.8580
2023-04-28T01:24:10.296Z,35.8580
2023-04-28T01:25:12.491Z,35.8580
2023-04-28T01:26:14.705Z,35.8410
2023-04-28T01:27:16.940Z,35.8300
2023-04-28T01:28:19.211Z,35.8530
2023-04-28T01:29:21.468Z,35.8470
2023-04-28T01:30:23.676Z,35.8350
2023-04-28T01:31:25.938Z,35.8410
2023-04-28T01:32:28.220Z,35.8350
2023-04-28T01:33:30.384Z,35.8440
2023-04-28T01:34:32.662Z,35.8480
2023-04-28T01:35:34.905Z,35.8190
2023-04-28T01:36:37.918Z,35.8360
2023-04-28T01:37:39.433Z,35.8520
2023-04-28T01:38:41.695Z,35.8590
2023-04-28T01:39:41.826Z,35.8480
2023-04-28T01:40:44.054Z,35.8570
2023-04-28T01:41:46.319Z,35.8800
2023-04-28T01:42:48.582Z,35.8590
2023-04-28T01:43:50.817Z,35.8700
2023-04-28T01:44:53.121Z,35.8910
2023-04-28T01:45:55.380Z,35.8800
2023-04-28T01:46:57.643Z,35.9080
2023-04-28T01:47:57.812Z,35.8870
2023-04-28T01:49:00.048Z,35.8870
2023-04-28T01:50:02.440Z,35.9030
2023-04-28T01:51:04.615Z,35.8970
2023-04-28T01:52:06.933Z,35.8970
2023-04-28T01:53:09.215Z,35.9200
2023-04-28T01:54:11.522Z,35.8970
2023-04-28T01:55:11.745Z,35.9030
2023-04-28T01:56:13.962Z,35.9030
2023-04-28T01:57:17.498Z,35.9080
2023-04-28T01:58:18.558Z,35.9310
2023-04-28T01:59:20.913Z,35.9440
2023-04-28T02:00:23.218Z,35.9560
2023-04-28T02:01:25.541Z,35.9850
2023-04-28T02:02:27.905Z,35.9790
2023-04-28T02:03:30.223Z,35.9560
2023-04-28T02:04:32.466Z,35.9390
2023-04-28T02:05:34.771Z,35.9510
2023-04-28T02:06:37.048Z,35.9390
2023-04-28T02:07:39.366Z,35.9620
2023-04-28T02:08:39.483Z,35.9560
2023-04-28T02:09:41.808Z,35.9390
2023-04-28T02:10:44.103Z,35.9720
2023-04-28T02:11:46.404Z,35.9450
2023-04-28T02:12:48.665Z,35.9780
2023-04-28T02:13:50.941Z,36.0040
2023-04-28T02:14:53.288Z,35.9930
2023-04-28T02:15:53.502Z,36.0160
2023-04-28T02:16:55.673Z,36.0100
2023-04-28T02:17:58.011Z,35.9680
2023-04-28T02:19:00.210Z,35.9660
2023-04-28T02:20:00.328Z,35.9780
2023-04-28T02:21:02.607Z,35.9780
2023-04-28T02:22:04.832Z,35.9830
2023-04-28T02:23:07.089Z,35.9990
2023-04-28T02:24:07.186Z,36.0390
2023-04-28T02:25:09.416Z,35.9870
2023-04-28T02:26:11.622Z,35.9740
2023-04-28T02:27:13.857Z,36.0040
2023-04-28T02:28:16.146Z,36.0040
2023-04-28T02:29:18.404Z,36.0270
2023-04-28T02:30:20.711Z,36.0210
2023-04-28T02:31:23.066Z,36.0520
2023-04-28T02:32:25.252Z,36.0430
2023-04-28T02:33:27.456Z,36.0710
2023-04-28T02:34:29.771Z,36.0780
2023-04-28T02:35:32.055Z,36.0840
2023-04-28T02:36:34.316Z,36.0600
2023-04-28T02:37:36.509Z,36.0710
2023-04-28T02:38:38.764Z,36.0660
2023-04-28T02:39:40.993Z,36.0840
2023-04-28T02:40:43.261Z,36.0900
2023-04-28T02:41:45.478Z,36.1070
2023-04-28T02:42:47.743Z,36.1180
2023-04-28T02:43:50.000Z,36.1020
2023-04-28T02:44:52.260Z,36.1020
2023-04-28T02:45:54.557Z,36.1440
2023-04-28T02:46:56.938Z,36.1440
2023-04-28T02:47:59.008Z,36.1720
2023-04-28T02:49:01.234Z,36.1890
2023-04-28T02:50:03.476Z,36.1840
2023-04-28T02:51:05.758Z,36.2020
2023-04-28T02:52:05.846Z,36.1780
2023-04-28T02:53:08.071Z,36.2610
2023-04-28T02:54:10.268Z,36.3330
2023-04-28T02:55:12.504Z,36.3710
2023-04-28T02:56:14.726Z,36.3830
2023-04-28T02:57:14.845Z,36.4180
2023-04-28T02:58:17.041Z,36.4360
2023-04-28T02:59:19.261Z,36.4710
2023-04-28T03:00:21.482Z,36.5100
2023-04-28T03:01:23.822Z,36.4660
2023-04-28T03:02:26.058Z,36.5100
2023-04-28T03:03:28.294Z,36.5460
2023-04-28T03:04:30.509Z,36.5760
2023-04-28T03:05:32.665Z,36.6800
2023-04-28T03:06:34.908Z,36.6900
2023-04-28T03:07:37.216Z,36.7560
2023-04-28T03:08:39.460Z,36.7560
2023-04-28T03:09:41.162Z,36.7430
2023-04-28T03:10:41.852Z,36.7490
2023-04-28T03:11:44.166Z,36.7620
2023-04-28T03:12:46.472Z,36.7870
2023-04-28T03:13:46.600Z,36.7690
2023-04-28T03:14:48.895Z,36.7720
2023-04-28T03:15:51.239Z,36.8140
2023-04-28T03:16:53.510Z,36.8670
2023-04-28T03:17:55.855Z,36.8570
2023-04-28T03:18:58.066Z,36.8740
2023-04-28T03:20:00.395Z,36.8480
2023-04-28T03:21:00.541Z,36.8480
2023-04-28T03:22:02.838Z,36.8420
2023-04-28T03:23:05.178Z,36.8180
2023-04-28T03:24:07.410Z,36.8690
2023-04-28T03:25:09.640Z,36.8640
2023-04-28T03:26:11.854Z,36.8910
2023-04-28T03:27:14.018Z,36.9320
2023-04-28T03:28:16.276Z,36.9270
2023-04-28T03:29:16.344Z,36.9020
2023-04-28T03:30:18.517Z,36.9270
2023-04-28T03:31:20.737Z,36.9270
2023-04-28T03:32:23.067Z,36.9490
2023-04-28T03:33:25.193Z,36.9490
2023-04-28T03:34:27.391Z,36.9770
2023-04-28T03:35:29.596Z,36.9940
2023-04-28T03:36:31.836Z,37.0180
2023-04-28T03:37:34.050Z,36.9940
2023-04-28T03:38:36.463Z,36.9880
2023-04-28T03:39:38.569Z,36.9850
2023-04-28T03:40:40.808Z,37.0000
2023-04-28T03:41:43.061Z,37.0410
2023-04-28T03:42:43.176Z,37.0710
2023-04-28T03:43:45.458Z,37.0940
2023-04-28T03:44:47.694Z,37.0530
2023-04-28T03:45:49.987Z,37.0640
2023-04-28T03:46:50.120Z,36.9710
2023-04-28T03:47:52.466Z,36.9540
2023-04-28T03:48:54.762Z,36.9480
2023-04-28T03:49:56.997Z,36.9130
2023-04-28T03:50:57.118Z,36.9930
2023-04-28T03:51:59.383Z,36.9960
2023-04-28T03:53:01.658Z,36.9830
2023-04-28T03:54:03.961Z,37.0420
2023-04-28T03:55:04.110Z,37.0530
2023-04-28T03:56:06.393Z,37.1120
2023-04-28T03:57:08.681Z,37.1280
2023-04-28T03:58:10.956Z,37.1160
2023-04-28T03:59:13.378Z,37.1390
2023-04-28T04:00:15.561Z,37.1450
2023-04-28T04:01:17.850Z,37.1640
2023-04-28T04:02:18.040Z,37.1110
2023-04-28T04:03:20.475Z,37.1640
2023-04-28T04:04:23.339Z,37.3700
2023-04-28T04:05:25.060Z,37.9530
2023-04-28T04:06:27.193Z,38.3880
2023-04-28T04:07:29.496Z,38.5570
2023-04-28T04:08:31.784Z,38.9210
2023-04-28T04:09:31.949Z,38.9950
2023-04-28T04:10:34.180Z,39.0070
2023-04-28T04:11:36.443Z,39.0160
2023-04-28T04:12:38.697Z,39.1590
2023-04-28T04:13:38.788Z,39.3150
2023-04-28T04:14:41.076Z,39.3450
2023-04-28T04:15:43.324Z,39.1760
2023-04-28T04:16:45.553Z,38.5430
2023-04-28T04:17:47.885Z,38.1340
2023-04-28T04:18:50.120Z,38.1220
2023-04-28T04:19:52.380Z,38.1510
2023-04-28T04:20:54.623Z,38.1760
2023-04-28T04:21:54.702Z,38.2170
2023-04-28T04:22:56.899Z,38.2970
2023-04-28T04:23:59.195Z,38.3230
2023-04-28T04:25:01.477Z,38.3550
2023-04-28T04:26:03.701Z,38.3750
2023-04-28T04:27:05.966Z,38.4170
2023-04-28T04:28:08.225Z,38.4780
2023-04-28T04:29:10.486Z,38.5620
2023-04-28T04:30:10.638Z,38.5550
2023-04-28T04:31:12.911Z,38.5910
2023-04-28T04:32:15.102Z,38.5430
2023-04-28T04:33:17.321Z,38.4770
2023-04-28T04:34:19.585Z,38.5960
2023-04-28T04:35:21.828Z,38.5540
2023-04-28T04:36:24.039Z,38.5770
2023-04-28T04:37:26.302Z,38.6000
2023-04-28T04:38:28.534Z,38.6660
2023-04-28T04:39:30.749Z,38.6230
2023-04-28T04:40:33.018Z,38.6360
2023-04-28T04:41:35.259Z,38.6170
2023-04-28T04:42:35.409Z,38.6270
2023-04-28T04:43:37.725Z,38.6800
2023-04-28T04:44:40.037Z,38.6600
2023-04-28T04:45:42.318Z,38.6330
2023-04-28T04:46:42.469Z,38.6360
2023-04-28T04:47:44.760Z,38.6660
2023-04-28T04:48:47.054Z,38.6950
2023-04-28T04:49:49.375Z,38.7250
2023-04-28T04:50:51.675Z,38.7310
2023-04-28T04:51:54.057Z,38.7310
2023-04-28T04:52:56.236Z,38.7190
2023-04-28T04:53:58.568Z,38.7370
2023-04-28T04:55:00.835Z,38.7270
2023-04-28T04:56:03.178Z,38.7190
2023-04-28T04:57:03.301Z,38.7370
2023-04-28T04:58:05.577Z,38.7370
2023-04-28T04:59:07.876Z,38.6890
2023-04-28T05:00:10.196Z,38.6660
2023-04-28T05:01:12.548Z,38.6230
2023-04-28T05:02:14.943Z,38.6710
2023-04-28T05:03:17.324Z,38.7270
2023-04-28T05:04:19.686Z,38.7160
2023-04-28T05:05:23.041Z,38.7450
2023-04-28T05:06:23.968Z,38.7990
2023-04-28T05:07:24.068Z,38.8220
2023-04-28T05:08:26.351Z,38.8160
2023-04-28T05:09:28.599Z,38.8940
2023-04-28T05:10:30.878Z,38.8820
2023-04-28T05:11:31.005Z,38.8820
2023-04-28T05:12:33.256Z,38.9210
2023-04-28T05:13:35.488Z,38.8920
2023-04-28T05:14:37.719Z,38.9280
2023-04-28T05:15:39.946Z,38.8980
2023-04-28T05:16:42.324Z,38.9210
2023-04-28T05:17:44.485Z,38.9630
2023-04-28T05:18:46.652Z,38.9750
2023-04-28T05:19:48.803Z,39.0000
2023-04-28T05:20:51.039Z,39.0340
2023-04-28T05:21:53.278Z,38.9630
2023-04-28T05:22:55.284Z,38.9460
2023-04-28T05:23:57.460Z,39.0230
2023-04-28T05:24:59.647Z,39.0340
2023-04-28T05:26:01.846Z,39.0460
2023-04-28T05:27:04.130Z,39.0600
2023-04-28T05:28:06.319Z,39.0680
2023-04-28T05:29:08.545Z,39.0830
2023-04-28T05:30:10.892Z,39.0500
2023-04-28T05:31:13.132Z,39.0500
2023-04-28T05:32:15.573Z,39.0440
2023-04-28T05:33:17.747Z,39.0350
2023-04-28T05:34:20.047Z,39.0470
2023-04-28T05:35:22.336Z,39.0800
2023-04-28T05:36:24.689Z,39.0090
2023-04-28T05:37:24.737Z,39.0220
2023-04-28T05:38:27.011Z,39.0620
2023-04-28T05:39:29.301Z,39.1260
2023-04-28T05:40:31.588Z,39.1380
2023-04-28T05:41:31.694Z,39.0720
2023-04-28T05:42:33.980Z,39.1010
2023-04-28T05:43:36.183Z,39.0490
2023-04-28T05:44:38.418Z,39.0800
2023-04-28T05:45:40.698Z,39.1160
2023-04-28T05:46:42.933Z,39.0930
2023-04-28T05:47:45.217Z,39.0990
2023-04-28T05:48:47.383Z,39.1050
2023-04-28T05:49:49.627Z,39.1530
2023-04-28T05:50:51.845Z,39.1380
2023-04-28T05:51:54.127Z,39.1140
2023-04-28T05:52:56.391Z,39.2210
2023-04-28T05:53:56.440Z,39.4140
2023-04-28T05:54:58.681Z,39.7250
2023-04-28T05:56:00.958Z,39.8410
2023-04-28T05:57:03.216Z,39.8020
2023-04-28T05:58:05.520Z,39.8620
2023-04-28T05:59:07.750Z,39.9080
2023-04-28T06:00:10.044Z,39.9880
2023-04-28T06:01:12.280Z,40.0130
2023-04-28T06:02:12.458Z,40.1880
2023-04-28T06:03:14.866Z,40.2300
2023-04-28T06:04:17.410Z,40.1490
2023-04-28T06:05:19.450Z,40.2770
2023-04-28T06:06:19.463Z,40.2950
2023-04-28T06:07:21.636Z,40.3210
2023-04-28T06:08:23.927Z,40.4370
2023-04-28T06:09:26.159Z,40.4800
2023-04-28T06:10:26.299Z,40.4740
2023-04-28T06:11:28.578Z,40.5310
2023-04-28T06:12:30.869Z,40.5980
2023-04-28T06:13:33.116Z,40.5920
2023-04-28T06:14:33.213Z,40.5840
2023-04-28T06:15:35.567Z,40.6490
2023-04-28T06:16:37.832Z,40.6730
2023-04-28T06:17:40.131Z,40.8000
2023-04-28T06:18:40.323Z,40.6920
2023-04-28T06:19:42.578Z,40.8170
2023-04-28T06:20:44.856Z,40.9110
2023-04-28T06:21:47.092Z,41.1280
2023-04-28T06:22:49.421Z,41.3330
2023-04-28T06:23:51.703Z,41.5260
2023-04-28T06:24:53.976Z,41.5140
2023-04-28T06:25:54.115Z,41.3750
2023-04-28T06:26:56.412Z,41.4420
2023-04-28T06:27:58.705Z,41.6200
2023-04-28T06:29:01.050Z,41.6080
2023-04-28T06:30:03.321Z,41.6130
2023-04-28T06:31:05.560Z,41.6360
2023-04-28T06:32:07.834Z,41.6470
2023-04-28T06:33:08.115Z,41.6180
2023-04-28T06:34:10.304Z,41.6010
2023-04-28T06:35:12.592Z,41.4790
2023-04-28T06:36:14.841Z,41.4580
2023-04-28T06:37:14.999Z,41.3030
2023-04-28T06:38:17.241Z,41.1750
2023-04-28T06:39:19.512Z,41.2530
2023-04-28T06:40:21.774Z,41.1860
2023-04-28T06:41:21.934Z,41.0480
2023-04-28T06:42:24.217Z,40.9520
2023-04-28T06:43:26.490Z,40.9300
2023-04-28T06:44:28.794Z,40.8870
2023-04-28T06:45:28.858Z,40.8950
2023-04-28T06:46:31.149Z,40.7800
2023-04-28T06:47:33.399Z,40.7350
2023-04-28T06:48:35.647Z,40.7040
2023-04-28T06:49:35.815Z,40.6410
2023-04-28T06:50:38.057Z,40.6410
2023-04-28T06:51:40.308Z,40.6160
2023-04-28T06:52:42.558Z,40.5530
2023-04-28T06:53:44.823Z,40.5590
2023-04-28T06:54:47.053Z,40.5200
2023-04-28T06:55:49.292Z,40.5020
2023-04-28T06:56:51.549Z,40.4060
2023-04-28T06:57:51.619Z,40.4550
2023-04-28T06:58:53.887Z,40.4350
2023-04-28T06:59:56.214Z,40.3880
2023-04-28T07:00:58.534Z,40.3460
2023-04-28T07:01:58.729Z,40.3520
2023-04-28T07:03:01.153Z,40.2910
2023-04-28T07:04:03.395Z,40.3280
2023-04-28T07:05:05.508Z,40.2970
2023-04-28T07:06:05.600Z,40.2500
2023-04-28T07:07:07.878Z,40.2560
2023-04-28T07:08:10.139Z,40.2680
2023-04-28T07:09:12.456Z,40.2620
2023-04-28T07:10:12.596Z,40.2800
2023-04-28T07:11:14.890Z,40.2370
2023-04-28T07:12:17.192Z,40.2190
2023-04-28T07:13:19.465Z,40.2170
2023-04-28T07:14:21.784Z,40.1980
2023-04-28T07:15:24.086Z,40.1320
2023-04-28T07:16:26.378Z,40.1750
2023-04-28T07:17:28.731Z,40.1570
2023-04-28T07:18:31.042Z,40.1140
2023-04-28T07:19:33.374Z,40.1140
2023-04-28T07:20:35.736Z,40.1040
2023-04-28T07:21:38.032Z,40.0810
2023-04-28T07:22:40.375Z,40.0870
2023-04-28T07:23:42.682Z,40.0770
2023-04-28T07:24:45.031Z,40.0200
2023-04-28T07:25:47.236Z,40.0540
2023-04-28T07:26:47.306Z,40.0040
2023-04-28T07:27:49.576Z,40.0000
2023-04-28T07:28:51.853Z,39.9780
2023-04-28T07:29:54.096Z,40.0030
2023-04-28T07:30:54.278Z,39.9970
2023-04-28T07:31:56.600Z,39.9660
2023-04-28T07:32:58.871Z,39.9600
2023-04-28T07:34:01.048Z,39.9780
2023-04-28T07:35:01.156Z,39.9430
2023-04-28T07:36:03.471Z,39.9370
2023-04-28T07:37:05.772Z,39.9140
2023-04-28T07:38:08.009Z,39.9370
2023-04-28T07:39:08.151Z,39.9200
2023-04-28T07:40:10.425Z,39.8950
2023-04-28T07:41:12.667Z,39.8890
2023-04-28T07:42:14.885Z,39.8620
2023-04-28T07:43:17.107Z,39.8600
2023-04-28T07:44:19.653Z,39.8440
2023-04-28T07:45:21.613Z,39.8390
2023-04-28T07:46:23.959Z,39.8600
2023-04-28T07:47:26.104Z,39.8540
2023-04-28T07:48:28.390Z,39.8000
2023-04-28T07:49:30.690Z,39.8000
2023-04-28T07:50:32.993Z,39.7630
2023-04-28T07:51:35.392Z,39.7510
2023-04-28T07:52:37.538Z,39.7630
2023-04-28T07:53:39.791Z,39.7430
2023-04-28T07:54:39.890Z,39.7490
2023-04-28T07:55:42.179Z,39.7280
2023-04-28T07:56:44.425Z,39.7340
2023-04-28T07:57:46.695Z,39.6790
2023-04-28T07:58:46.812Z,39.7050
2023-04-28T08:00:32.089Z,39.5200
2023-04-28T08:01:32.153Z,39.3810
2023-04-28T08:02:34.644Z,39.3040
2023-04-28T08:03:36.887Z,39.2490
2023-04-28T08:04:38.926Z,39.1840
2023-04-28T08:05:41.102Z,39.1970
2023-04-28T08:06:43.353Z,39.1740
2023-04-28T08:07:45.699Z,39.0970
2023-04-28T08:08:47.911Z,39.1080
2023-04-28T08:09:52.037Z,39.0910
2023-04-28T08:10:50.283Z,39.0930
2023-04-28T08:11:52.517Z,39.0820
2023-04-28T08:12:54.797Z,39.0760
2023-04-28T08:13:57.010Z,39.0640
2023-04-28T08:14:59.260Z,39.0990
2023-04-28T08:16:01.594Z,39.0930
2023-04-28T08:17:03.766Z,39.0470
2023-04-28T08:18:06.092Z,39.0820
2023-04-28T08:19:08.377Z,39.0280
2023-04-28T08:20:10.524Z,39.0520
2023-04-28T08:21:10.670Z,39.0100
2023-04-28T08:22:12.973Z,39.0470
2023-04-28T08:23:15.241Z,39.0410
2023-04-28T08:24:17.623Z,39.0330
2023-04-28T08:25:19.761Z,39.0160
2023-04-28T08:26:22.064Z,39.0280
2023-04-28T08:27:24.325Z,39.0330
2023-04-28T08:28:24.529Z,39.0410
2023-04-28T08:29:26.763Z,39.0160
2023-04-28T08:30:29.037Z,39.0100
2023-04-28T08:31:31.340Z,39.0100
2023-04-28T08:32:33.594Z,39.0100
2023-04-28T08:33:35.857Z,38.9620
2023-04-28T08:34:38.066Z,38.9810
2023-04-28T08:35:40.299Z,38.9660
2023-04-28T08:36:40.406Z,38.9420
2023-04-28T08:37:42.643Z,38.9420
2023-04-28T08:38:44.971Z,38.9170
2023-04-28T08:39:47.112Z,38.9290
2023-04-28T08:40:49.363Z,38.9710
2023-04-28T08:41:51.662Z,38.9120
2023-04-28T08:42:53.857Z,38.9540
2023-04-28T08:43:56.113Z,38.9420
2023-04-28T08:44:58.311Z,38.9600
2023-04-28T08:46:00.478Z,38.9660
2023-04-28T08:47:02.755Z,38.9170
2023-04-28T08:48:02.819Z,38.9230
2023-04-28T08:49:04.978Z,38.8850
2023-04-28T08:50:07.165Z,38.8790
2023-04-28T08:51:09.386Z,38.8440
2023-04-28T08:52:11.561Z,38.9530
2023-04-28T08:53:13.807Z,39.7110
2023-04-28T08:54:25.427Z,40.3490
2023-04-28T08:55:18.291Z,40.7330
2023-04-28T08:56:20.522Z,40.7790
2023-04-28T08:57:22.800Z,41.0680
2023-04-28T08:58:24.917Z,41.1560
2023-04-28T08:59:27.169Z,41.3950
2023-04-28T09:00:29.373Z,41.4170
2023-04-28T09:01:29.501Z,41.5620
2023-04-28T09:02:31.833Z,41.7170
2023-04-28T09:03:34.128Z,41.7900
2023-04-28T09:04:36.429Z,41.8890
2023-04-28T09:05:38.636Z,41.9880
2023-04-28T09:06:40.690Z,42.0940
2023-04-28T09:07:42.946Z,42.1790
2023-04-28T09:08:45.172Z,42.2710
2023-04-28T09:09:47.510Z,42.2890
2023-04-28T09:10:49.592Z,42.3010
2023-04-28T09:11:49.674Z,42.4040
2023-04-28T09:13:45.752Z,42.6220
2023-04-28T09:14:47.918Z,42.6570
2023-04-28T09:15:50.171Z,42.7210
2023-04-28T09:16:52.440Z,42.8250
2023-04-28T09:17:54.728Z,42.9110
2023-04-28T09:18:54.743Z,43.0270
2023-04-28T09:19:57.018Z,43.0490
2023-04-28T09:21:01.444Z,43.1010
2023-04-28T09:22:07.682Z,43.1070
2023-04-28T09:23:03.872Z,43.1300
2023-04-28T09:24:06.126Z,43.1890
2023-04-28T09:25:08.400Z,43.1680
2023-04-28T09:26:10.654Z,43.2230
2023-04-28T09:27:10.767Z,43.1990
2023-04-28T09:28:12.987Z,43.1930
2023-04-28T09:29:15.291Z,43.1810
2023-04-28T09:30:17.599Z,43.2670
2023-04-28T09:31:19.871Z,43.2790
2023-04-28T09:32:22.321Z,43.2790
2023-04-28T09:33:24.352Z,43.3620
2023-04-28T09:34:26.644Z,43.2890
2023-04-28T09:35:26.777Z,43.0470
2023-04-28T09:36:29.082Z,42.4610
2023-04-28T09:37:31.370Z,41.6760
2023-04-28T09:38:33.630Z,41.3800
2023-04-28T09:39:35.895Z,41.1290
2023-04-28T09:40:38.198Z,41.0780
2023-04-28T09:41:40.503Z,41.0250
2023-04-28T09:42:40.586Z,40.9530
2023-04-28T09:43:42.886Z,40.9280
2023-04-28T09:44:45.180Z,40.8540
2023-04-28T09:45:47.500Z,40.7620
2023-04-28T09:46:49.804Z,40.7170
2023-04-28T09:47:52.128Z,40.6480
2023-04-28T09:48:54.348Z,40.6170
2023-04-28T09:49:54.469Z,40.5740
2023-04-28T09:50:56.695Z,40.5290
2023-04-28T09:51:58.940Z,40.4680
2023-04-28T09:53:01.200Z,40.4210
2023-04-28T09:54:03.500Z,40.4210
2023-04-28T09:55:05.823Z,40.3490
2023-04-28T09:56:08.149Z,40.2980
2023-04-28T09:57:10.404Z,40.2550
2023-04-28T09:58:10.487Z,40.2550
2023-04-28T09:59:12.805Z,40.2310
2023-04-28T10:00:15.215Z,40.2430
2023-04-28T10:01:17.413Z,40.1730
2023-04-28T10:02:41.597Z,40.1160
2023-04-28T10:03:23.376Z,40.1380
2023-04-28T10:04:22.373Z,40.1050
2023-04-28T10:05:24.697Z,40.0850
2023-04-28T10:06:26.673Z,40.0080
2023-04-28T10:07:28.934Z,40.0340
2023-04-28T10:08:31.129Z,40.0290
2023-04-28T10:09:33.426Z,40.0100
2023-04-28T10:10:35.702Z,39.9710
2023-04-28T10:11:37.980Z,39.9420
2023-04-28T10:12:40.305Z,39.9030
2023-04-28T10:13:40.406Z,39.8760
2023-04-28T10:14:42.822Z,39.8940
2023-04-28T10:15:44.988Z,39.8990
2023-04-28T10:16:47.202Z,39.8820
2023-04-28T10:17:49.582Z,39.8880
2023-04-28T10:18:51.702Z,39.9170
2023-04-28T10:19:53.960Z,39.8760
2023-04-28T10:20:56.202Z,39.8940
2023-04-28T10:21:56.307Z,39.8390
2023-04-28T10:22:58.534Z,39.8640
2023-04-28T10:24:00.737Z,39.8590
2023-04-28T10:25:02.955Z,39.8490
2023-04-28T10:26:05.189Z,39.8840
2023-04-28T10:27:07.464Z,39.9050
2023-04-28T10:28:09.713Z,39.9280
2023-04-28T10:29:11.984Z,39.9590
2023-04-28T10:30:26.239Z,39.9710
2023-04-28T10:31:16.783Z,39.9820
2023-04-28T10:32:16.664Z,40.0010
2023-04-28T10:33:18.977Z,40.0010
2023-04-28T10:34:21.208Z,40.0420
2023-04-28T10:35:23.491Z,40.0250
2023-04-28T10:36:33.655Z,40.0480
2023-04-28T10:37:28.041Z,40.0660
2023-04-28T10:38:30.345Z,40.0790
2023-04-28T10:39:30.451Z,40.0660
2023-04-28T10:40:32.709Z,40.0540
2023-04-28T10:41:34.927Z,40.0910
2023-04-28T10:42:37.163Z,40.0970
2023-04-28T10:43:39.808Z,40.0970
2023-04-28T10:44:41.680Z,40.0990
2023-04-28T10:45:43.920Z,40.0810
2023-04-28T10:46:46.248Z,40.1040
2023-04-28T10:47:46.356Z,40.1230
2023-04-28T10:48:48.663Z,40.1130
2023-04-28T10:49:50.831Z,40.1310
2023-04-28T10:50:53.092Z,40.1190
2023-04-28T10:51:55.379Z,40.1520
2023-04-28T10:52:57.662Z,40.1960
2023-04-28T10:53:59.968Z,40.1790
2023-04-28T10:55:09.647Z,40.2860
2023-04-28T10:56:02.336Z,40.2530
2023-04-28T10:57:04.601Z,40.2530
2023-04-28T10:58:06.869Z,40.2580
2023-04-28T10:59:09.167Z,40.2380
2023-04-28T11:00:11.375Z,40.2500
2023-04-28T11:01:13.651Z,40.2650
2023-04-28T11:02:15.867Z,40.2590
2023-04-28T11:03:18.079Z,40.3020
2023-04-28T11:04:20.600Z,40.3130
2023-04-28T11:05:22.657Z,40.3190
2023-04-28T11:06:22.628Z,40.3480
2023-04-28T11:07:24.889Z,40.3130
2023-04-28T11:08:27.160Z,40.3480
2023-04-28T11:09:29.461Z,40.3210
2023-04-28T11:10:31.709Z,40.3270
2023-04-28T11:11:33.987Z,40.3750
2023-04-28T11:12:36.278Z,40.4050
2023-04-28T11:13:39.640Z,40.3540
2023-04-28T11:14:38.705Z,40.3240
2023-04-28T11:15:40.971Z,40.2990
2023-04-28T11:16:43.251Z,40.3030
2023-04-28T11:17:45.498Z,40.3210
2023-04-28T11:18:47.722Z,40.3240
2023-04-28T11:19:50.056Z,40.3360
2023-04-28T11:20:52.309Z,40.3540
2023-04-28T11:21:54.594Z,40.3710
2023-04-28T11:22:54.673Z,40.4460
2023-04-28T11:23:56.924Z,40.3410
2023-04-28T11:24:59.232Z,40.4100
2023-04-28T11:26:01.493Z,40.5500
2023-04-28T11:27:03.812Z,40.6660
2023-04-28T11:28:06.091Z,40.6480
2023-04-28T11:29:06.234Z,40.5880
2023-04-28T11:30:08.537Z,40.5650
2023-04-28T11:31:10.839Z,40.5100
2023-04-28T11:32:13.133Z,40.6160
2023-04-28T11:33:15.487Z,40.5470
2023-04-28T11:34:17.703Z,40.5940
2023-04-28T11:35:20.068Z,40.6860
2023-04-28T11:36:20.121Z,40.7030
2023-04-28T11:37:22.338Z,40.5390
2023-04-28T11:38:24.583Z,40.5640
2023-04-28T11:39:26.843Z,40.6360
2023-04-28T11:40:29.120Z,40.7990
2023-04-28T11:41:31.338Z,40.6470
2023-04-28T11:42:33.551Z,40.7190
2023-04-28T11:43:46.537Z,40.6880
2023-04-28T11:44:38.030Z,40.8030
2023-04-28T11:45:40.277Z,40.7790
2023-04-28T11:46:42.423Z,40.6660
2023-04-28T11:47:44.670Z,40.6060
2023-04-28T11:48:44.736Z,40.5710
2023-04-28T11:49:46.993Z,40.6140
2023-04-28T11:50:49.276Z,40.5820
2023-04-28T11:51:51.513Z,40.6190
2023-04-28T11:52:54.063Z,40.6140
2023-04-28T11:53:56.073Z,40.7320
2023-04-28T11:54:58.317Z,40.6700
2023-04-28T11:56:00.618Z,40.6410
2023-04-28T11:57:02.871Z,40.6760
2023-04-28T11:58:02.994Z,40.7060
2023-04-28T11:59:05.247Z,40.7370
2023-04-28T12:00:07.483Z,40.7460
2023-04-28T12:01:09.710Z,40.7390
2023-04-28T12:03:10.087Z,40.7800
2023-04-28T12:04:12.294Z,40.7040
2023-04-28T12:05:14.337Z,40.7400
2023-04-28T12:06:14.436Z,40.7910
2023-04-28T12:07:16.640Z,40.8320
2023-04-28T12:08:21.005Z,40.7760
2023-04-28T12:09:14.597Z,40.7350
2023-04-28T12:10:17.094Z,40.8120
2023-04-28T12:11:19.953Z,40.7910
2023-04-28T12:12:26.371Z,40.8140
2023-04-28T12:13:23.165Z,40.8810
2023-04-28T12:14:25.377Z,40.9530
2023-04-28T12:15:27.569Z,40.9370
2023-04-28T12:16:31.878Z,40.8820
2023-04-28T12:17:31.981Z,41.0030
2023-04-28T12:18:34.132Z,40.5220
2023-04-28T12:19:36.316Z,40.4010
2023-04-28T12:20:38.775Z,40.4380
2023-04-28T12:21:40.691Z,40.3770
2023-04-28T12:22:42.977Z,40.1810
2023-04-28T12:23:45.125Z,40.2280
2023-04-28T12:24:45.216Z,40.3340
2023-04-28T12:25:47.413Z,40.3380
2023-04-28T12:26:49.666Z,40.2780
2023-04-28T12:27:51.839Z,40.2280
2023-04-28T12:28:54.067Z,40.5040
2023-04-28T12:29:56.249Z,40.6980
2023-04-28T12:30:58.509Z,40.7070
2023-04-28T12:32:00.760Z,40.5800